logo
Rechercher aéroport 
image banner adimage banner adimage banner ad
image banner ad

SQDB - Los Condores

Situé à , Colombia

ICAO - , IATA -

Données fournies par Airmate  

Information générale

Coordonnées: N4°48'1" W75°50'13"
Élévation : 3881 feet MSL.
 
Voir autres Aéroports à Risaralda

Données opérationnelles

Special qualification required
Heure actuelle UTC:
Heure actuelle locale:
Météo à : SKPE - Pereira-Matecana ( 11 km )
METAR: SKPE 241700Z 28003KT 9999 SCT016CB SCT080 25/21 Q1018 RMK CB/NE/E
Voir NOTAMs / SUP AIP / TFR affectant cet aéroport [VIEW]
Fréquences de communication: [VIEW]

Pistes:

Coordonnées de l'aéroport

Adresse: Colombia

Vue satellite de SQDB